sensor_id;sensor_type;location;lat;lon;timestamp;temperature;humidity
17659;DHT22;8948;51.534;8.262;2023-03-12T00:02:17;2.90;57.50
17659;DHT22;8948;51.534;8.262;2023-03-12T00:07:18;3.00;58.10
17659;DHT22;8948;51.534;8.262;2023-03-12T00:12:19;3.00;57.70
17659;DHT22;8948;51.534;8.262;2023-03-12T00:17:19;3.00;58.00
17659;DHT22;8948;51.534;8.262;2023-03-12T00:22:20;3.00;57.50
17659;DHT22;8948;51.534;8.262;2023-03-12T00:27:25;2.90;58.00
17659;DHT22;8948;51.534;8.262;2023-03-12T00:32:26;2.90;58.20
17659;DHT22;8948;51.534;8.262;2023-03-12T00:37:26;3.00;58.20
17659;DHT22;8948;51.534;8.262;2023-03-12T00:42:27;3.00;58.40
17659;DHT22;8948;51.534;8.262;2023-03-12T00:47:28;2.90;58.20
17659;DHT22;8948;51.534;8.262;2023-03-12T00:52:28;2.90;58.10
17659;DHT22;8948;51.534;8.262;2023-03-12T00:57:29;3.00;58.00
17659;DHT22;8948;51.534;8.262;2023-03-12T01:02:29;2.90;57.80
17659;DHT22;8948;51.534;8.262;2023-03-12T01:07:30;2.90;57.70
17659;DHT22;8948;51.534;8.262;2023-03-12T01:12:30;2.90;57.80
17659;DHT22;8948;51.534;8.262;2023-03-12T01:17:31;2.90;57.40
17659;DHT22;8948;51.534;8.262;2023-03-12T01:22:32;2.80;57.40
17659;DHT22;8948;51.534;8.262;2023-03-12T01:27:32;2.80;57.70
17659;DHT22;8948;51.534;8.262;2023-03-12T01:32:33;2.70;57.50
17659;DHT22;8948;51.534;8.262;2023-03-12T01:37:33;2.70;57.70
17659;DHT22;8948;51.534;8.262;2023-03-12T01:42:34;2.70;57.80
17659;DHT22;8948;51.534;8.262;2023-03-12T01:47:34;2.70;57.90
17659;DHT22;8948;51.534;8.262;2023-03-12T01:52:36;2.70;58.00
17659;DHT22;8948;51.534;8.262;2023-03-12T01:57:42;2.70;57.90
17659;DHT22;8948;51.534;8.262;2023-03-12T02:02:43;2.80;57.30
17659;DHT22;8948;51.534;8.262;2023-03-12T02:07:45;2.70;57.20
17659;DHT22;8948;51.534;8.262;2023-03-12T02:12:46;2.80;57.80
17659;DHT22;8948;51.534;8.262;2023-03-12T02:17:46;2.80;57.30
17659;DHT22;8948;51.534;8.262;2023-03-12T02:22:51;2.70;56.80
17659;DHT22;8948;51.534;8.262;2023-03-12T02:27:59;2.70;56.80
17659;DHT22;8948;51.534;8.262;2023-03-12T02:33:06;2.70;57.30
17659;DHT22;8948;51.534;8.262;2023-03-12T02:43:35;2.70;57.10
17659;DHT22;8948;51.534;8.262;2023-03-12T02:48:36;2.70;57.60
17659;DHT22;8948;51.534;8.262;2023-03-12T02:53:38;2.70;57.40
17659;DHT22;8948;51.534;8.262;2023-03-12T02:58:38;2.80;57.40
17659;DHT22;8948;51.534;8.262;2023-03-12T03:03:39;2.80;57.30
17659;DHT22;8948;51.534;8.262;2023-03-12T03:08:40;2.80;57.30
17659;DHT22;8948;51.534;8.262;2023-03-12T03:13:40;2.70;57.80
17659;DHT22;8948;51.534;8.262;2023-03-12T03:18:41;2.60;58.20
17659;DHT22;8948;51.534;8.262;2023-03-12T03:23:44;2.70;58.10
17659;DHT22;8948;51.534;8.262;2023-03-12T03:28:45;2.60;57.50
17659;DHT22;8948;51.534;8.262;2023-03-12T03:33:46;2.60;57.20
17659;DHT22;8948;51.534;8.262;2023-03-12T03:38:46;2.60;57.10
17659;DHT22;8948;51.534;8.262;2023-03-12T03:43:48;2.60;57.50
17659;DHT22;8948;51.534;8.262;2023-03-12T03:48:49;2.60;57.70
17659;DHT22;8948;51.534;8.262;2023-03-12T03:53:50;2.60;57.90
17659;DHT22;8948;51.534;8.262;2023-03-12T03:58:51;2.60;57.60
17659;DHT22;8948;51.534;8.262;2023-03-12T04:03:51;2.60;57.40
17659;DHT22;8948;51.534;8.262;2023-03-12T04:08:52;2.60;57.60
17659;DHT22;8948;51.534;8.262;2023-03-12T04:13:52;2.50;57.50
17659;DHT22;8948;51.534;8.262;2023-03-12T04:18:53;2.50;57.60
17659;DHT22;8948;51.534;8.262;2023-03-12T04:23:53;2.40;58.00
17659;DHT22;8948;51.534;8.262;2023-03-12T04:28:54;2.40;57.60
17659;DHT22;8948;51.534;8.262;2023-03-12T04:33:55;2.50;57.00
17659;DHT22;8948;51.534;8.262;2023-03-12T04:38:56;2.50;57.10
17659;DHT22;8948;51.534;8.262;2023-03-12T04:43:56;2.50;56.90
17659;DHT22;8948;51.534;8.262;2023-03-12T04:48:57;2.60;57.20
17659;DHT22;8948;51.534;8.262;2023-03-12T04:53:58;2.60;57.10
17659;DHT22;8948;51.534;8.262;2023-03-12T04:58:58;2.70;57.20
17659;DHT22;8948;51.534;8.262;2023-03-12T05:03:59;2.70;57.40
17659;DHT22;8948;51.534;8.262;2023-03-12T05:09:00;2.70;57.90
17659;DHT22;8948;51.534;8.262;2023-03-12T05:14:00;2.70;57.70
17659;DHT22;8948;51.534;8.262;2023-03-12T05:19:02;2.60;57.70
17659;DHT22;8948;51.534;8.262;2023-03-12T05:24:03;2.60;57.60
17659;DHT22;8948;51.534;8.262;2023-03-12T05:29:05;2.60;58.20
17659;DHT22;8948;51.534;8.262;2023-03-12T05:34:05;2.60;58.20
17659;DHT22;8948;51.534;8.262;2023-03-12T05:39:06;2.80;58.00
17659;DHT22;8948;51.534;8.262;2023-03-12T05:44:10;2.80;58.40
17659;DHT22;8948;51.534;8.262;2023-03-12T05:49:11;2.80;57.40
17659;DHT22;8948;51.534;8.262;2023-03-12T05:54:11;2.70;57.00
17659;DHT22;8948;51.534;8.262;2023-03-12T05:59:12;2.70;57.90
17659;DHT22;8948;51.534;8.262;2023-03-12T06:04:12;2.70;57.40
17659;DHT22;8948;51.534;8.262;2023-03-12T06:09:13;2.70;57.00
17659;DHT22;8948;51.534;8.262;2023-03-12T06:14:14;2.80;56.90
17659;DHT22;8948;51.534;8.262;2023-03-12T06:19:14;2.90;56.70
17659;DHT22;8948;51.534;8.262;2023-03-12T06:24:15;2.90;56.70
17659;DHT22;8948;51.534;8.262;2023-03-12T06:29:15;3.00;56.80
17659;DHT22;8948;51.534;8.262;2023-03-12T06:34:16;3.10;56.30
17659;DHT22;8948;51.534;8.262;2023-03-12T06:39:16;3.20;55.90
17659;DHT22;8948;51.534;8.262;2023-03-12T06:44:17;3.30;56.40
17659;DHT22;8948;51.534;8.262;2023-03-12T06:49:19;3.30;56.20
17659;DHT22;8948;51.534;8.262;2023-03-12T06:54:19;3.30;56.00
17659;DHT22;8948;51.534;8.262;2023-03-12T06:59:20;3.40;56.30
17659;DHT22;8948;51.534;8.262;2023-03-12T07:04:21;3.40;56.10
17659;DHT22;8948;51.534;8.262;2023-03-12T07:09:22;3.50;56.20
17659;DHT22;8948;51.534;8.262;2023-03-12T07:14:22;3.60;55.80
17659;DHT22;8948;51.534;8.262;2023-03-12T07:19:23;3.60;56.20
17659;DHT22;8948;51.534;8.262;2023-03-12T07:24:23;3.50;56.00
17659;DHT22;8948;51.534;8.262;2023-03-12T07:29:24;3.60;56.50
17659;DHT22;8948;51.534;8.262;2023-03-12T07:34:25;3.70;56.60
17659;DHT22;8948;51.534;8.262;2023-03-12T07:39:26;3.90;57.70
17659;DHT22;8948;51.534;8.262;2023-03-12T07:44:26;4.00;56.20
17659;DHT22;8948;51.534;8.262;2023-03-12T07:49:27;3.90;56.50
17659;DHT22;8948;51.534;8.262;2023-03-12T07:54:27;4.00;57.20
17659;DHT22;8948;51.534;8.262;2023-03-12T07:59:29;4.00;57.80
17659;DHT22;8948;51.534;8.262;2023-03-12T08:04:30;4.10;58.20
17659;DHT22;8948;51.534;8.262;2023-03-12T08:09:31;4.10;58.50
17659;DHT22;8948;51.534;8.262;2023-03-12T08:14:33;4.20;58.90
17659;DHT22;8948;51.534;8.262;2023-03-12T08:19:33;4.30;59.50
17659;DHT22;8948;51.534;8.262;2023-03-12T08:24:34;4.50;60.70
17659;DHT22;8948;51.534;8.262;2023-03-12T08:29:34;4.50;62.60
17659;DHT22;8948;51.534;8.262;2023-03-12T08:34:35;4.40;63.70
17659;DHT22;8948;51.534;8.262;2023-03-12T08:39:36;4.40;65.10
17659;DHT22;8948;51.534;8.262;2023-03-12T08:44:36;4.30;65.00
17659;DHT22;8948;51.534;8.262;2023-03-12T08:49:37;4.30;67.00
17659;DHT22;8948;51.534;8.262;2023-03-12T08:54:38;4.10;67.00
17659;DHT22;8948;51.534;8.262;2023-03-12T08:59:38;4.00;67.70
17659;DHT22;8948;51.534;8.262;2023-03-12T09:04:39;4.00;68.70
17659;DHT22;8948;51.534;8.262;2023-03-12T09:09:39;4.10;68.40
17659;DHT22;8948;51.534;8.262;2023-03-12T09:14:40;4.00;69.40
17659;DHT22;8948;51.534;8.262;2023-03-12T09:19:41;4.10;69.70
17659;DHT22;8948;51.534;8.262;2023-03-12T09:24:42;4.00;70.40
17659;DHT22;8948;51.534;8.262;2023-03-12T09:29:42;4.00;71.10
17659;DHT22;8948;51.534;8.262;2023-03-12T09:34:43;4.10;71.50
17659;DHT22;8948;51.534;8.262;2023-03-12T09:39:43;4.30;71.60
17659;DHT22;8948;51.534;8.262;2023-03-12T09:44:44;4.40;71.50
17659;DHT22;8948;51.534;8.262;2023-03-12T09:49:48;4.50;72.20
17659;DHT22;8948;51.534;8.262;2023-03-12T09:55:10;4.70;71.90
17659;DHT22;8948;51.534;8.262;2023-03-12T10:00:14;4.80;73.00
17659;DHT22;8948;51.534;8.262;2023-03-12T10:15:53;5.20;73.00
17659;DHT22;8948;51.534;8.262;2023-03-12T10:31:18;5.60;71.70
17659;DHT22;8948;51.534;8.262;2023-03-12T10:36:34;5.60;71.90
17659;DHT22;8948;51.534;8.262;2023-03-12T10:41:36;5.50;72.60
17659;DHT22;8948;51.534;8.262;2023-03-12T10:52:06;5.60;72.50
17659;DHT22;8948;51.534;8.262;2023-03-12T10:57:07;5.60;72.10
17659;DHT22;8948;51.534;8.262;2023-03-12T11:02:40;5.40;73.20
17659;DHT22;8948;51.534;8.262;2023-03-12T11:07:43;5.30;74.60
17659;DHT22;8948;51.534;8.262;2023-03-12T11:18:18;6.00;74.80
17659;DHT22;8948;51.534;8.262;2023-03-12T11:23:28;6.30;75.20
17659;DHT22;8948;51.534;8.262;2023-03-12T11:28:36;6.50;75.50
17659;DHT22;8948;51.534;8.262;2023-03-12T11:33:38;6.50;75.80
17659;DHT22;8948;51.534;8.262;2023-03-12T11:44:19;6.60;75.60
17659;DHT22;8948;51.534;8.262;2023-03-12T11:49:53;6.50;77.00
17659;DHT22;8948;51.534;8.262;2023-03-12T11:55:05;6.50;77.40
17659;DHT22;8948;51.534;8.262;2023-03-12T12:00:15;6.60;76.70
17659;DHT22;8948;51.534;8.262;2023-03-12T12:21:02;6.80;77.10
17659;DHT22;8948;51.534;8.262;2023-03-12T12:27:02;6.80;77.30
17659;DHT22;8948;51.534;8.262;2023-03-12T12:31:54;6.70;77.20
17659;DHT22;8948;51.534;8.262;2023-03-12T12:37:14;6.80;77.90
17659;DHT22;8948;51.534;8.262;2023-03-12T12:42:22;6.80;78.30
17659;DHT22;8948;51.534;8.262;2023-03-12T12:48:02;6.90;78.10
17659;DHT22;8948;51.534;8.262;2023-03-12T12:53:23;7.00;78.50
17659;DHT22;8948;51.534;8.262;2023-03-12T12:59:01;7.10;79.50
17659;DHT22;8948;51.534;8.262;2023-03-12T13:14:44;7.60;79.70
17659;DHT22;8948;51.534;8.262;2023-03-12T13:19:47;7.70;79.50
17659;DHT22;8948;51.534;8.262;2023-03-12T13:25:23;7.90;78.80
17659;DHT22;8948;51.534;8.262;2023-03-12T13:35:37;8.00;79.60
17659;DHT22;8948;51.534;8.262;2023-03-12T13:40:52;8.10;79.00
17659;DHT22;8948;51.534;8.262;2023-03-12T13:46:05;8.20;79.70
17659;DHT22;8948;51.534;8.262;2023-03-12T13:51:17;8.40;79.20
17659;DHT22;8948;51.534;8.262;2023-03-12T13:56:22;8.50;79.10
17659;DHT22;8948;51.534;8.262;2023-03-12T14:01:35;8.60;79.10
17659;DHT22;8948;51.534;8.262;2023-03-12T14:12:27;8.60;79.60
17659;DHT22;8948;51.534;8.262;2023-03-12T14:17:30;8.60;79.50
17659;DHT22;8948;51.534;8.262;2023-03-12T14:22:33;8.80;79.20
17659;DHT22;8948;51.534;8.262;2023-03-12T14:27:35;9.10;77.90
17659;DHT22;8948;51.534;8.262;2023-03-12T14:32:36;9.30;77.60
17659;DHT22;8948;51.534;8.262;2023-03-12T14:37:43;9.10;77.70
17659;DHT22;8948;51.534;8.262;2023-03-12T14:42:45;9.00;78.20
17659;DHT22;8948;51.534;8.262;2023-03-12T14:47:48;9.00;78.40
17659;DHT22;8948;51.534;8.262;2023-03-12T14:52:52;8.90;77.90
17659;DHT22;8948;51.534;8.262;2023-03-12T14:58:15;8.90;78.60
17659;DHT22;8948;51.534;8.262;2023-03-12T15:03:16;9.00;78.60
17659;DHT22;8948;51.534;8.262;2023-03-12T15:08:17;9.10;78.40
17659;DHT22;8948;51.534;8.262;2023-03-12T15:13:20;9.20;78.00
17659;DHT22;8948;51.534;8.262;2023-03-12T15:18:27;9.20;78.10
17659;DHT22;8948;51.534;8.262;2023-03-12T15:23:31;9.30;77.90
17659;DHT22;8948;51.534;8.262;2023-03-12T15:28:32;9.20;78.10
17659;DHT22;8948;51.534;8.262;2023-03-12T15:33:33;9.20;78.40
17659;DHT22;8948;51.534;8.262;2023-03-12T15:38:34;9.20;79.00
17659;DHT22;8948;51.534;8.262;2023-03-12T15:43:37;9.10;79.00
17659;DHT22;8948;51.534;8.262;2023-03-12T15:48:39;9.20;79.10
17659;DHT22;8948;51.534;8.262;2023-03-12T15:53:40;9.20;78.70
17659;DHT22;8948;51.534;8.262;2023-03-12T15:58:41;9.40;78.40
17659;DHT22;8948;51.534;8.262;2023-03-12T16:03:43;9.40;78.10
17659;DHT22;8948;51.534;8.262;2023-03-12T16:13:49;9.40;77.90
17659;DHT22;8948;51.534;8.262;2023-03-12T16:18:50;9.40;77.90
17659;DHT22;8948;51.534;8.262;2023-03-12T16:23:50;9.40;77.70
17659;DHT22;8948;51.534;8.262;2023-03-12T16:28:51;9.40;77.40
17659;DHT22;8948;51.534;8.262;2023-03-12T16:33:51;9.50;77.10
17659;DHT22;8948;51.534;8.262;2023-03-12T16:38:52;9.50;76.90
17659;DHT22;8948;51.534;8.262;2023-03-12T16:43:53;9.50;76.80
17659;DHT22;8948;51.534;8.262;2023-03-12T16:48:54;9.60;76.30
17659;DHT22;8948;51.534;8.262;2023-03-12T16:53:55;9.50;76.10
17659;DHT22;8948;51.534;8.262;2023-03-12T16:58:58;9.60;75.50
17659;DHT22;8948;51.534;8.262;2023-03-12T17:04:01;9.60;74.90
17659;DHT22;8948;51.534;8.262;2023-03-12T17:09:02;9.70;74.00
17659;DHT22;8948;51.534;8.262;2023-03-12T17:14:16;9.70;72.90
17659;DHT22;8948;51.534;8.262;2023-03-12T17:19:17;9.80;72.40
17659;DHT22;8948;51.534;8.262;2023-03-12T17:24:18;9.80;72.10
17659;DHT22;8948;51.534;8.262;2023-03-12T17:29:18;9.80;71.50
17659;DHT22;8948;51.534;8.262;2023-03-12T17:34:19;9.80;71.20
17659;DHT22;8948;51.534;8.262;2023-03-12T17:39:19;9.80;71.30
17659;DHT22;8948;51.534;8.262;2023-03-12T17:44:20;9.80;70.90
17659;DHT22;8948;51.534;8.262;2023-03-12T17:49:20;9.80;70.80
17659;DHT22;8948;51.534;8.262;2023-03-12T17:54:21;9.80;70.90
17659;DHT22;8948;51.534;8.262;2023-03-12T17:59:22;9.80;70.10
17659;DHT22;8948;51.534;8.262;2023-03-12T18:04:22;9.90;69.90
17659;DHT22;8948;51.534;8.262;2023-03-12T18:09:23;9.90;69.30
17659;DHT22;8948;51.534;8.262;2023-03-12T18:14:24;9.90;68.50
17659;DHT22;8948;51.534;8.262;2023-03-12T18:19:24;9.80;67.70
17659;DHT22;8948;51.534;8.262;2023-03-12T18:24:26;9.90;67.50
17659;DHT22;8948;51.534;8.262;2023-03-12T18:29:26;9.80;66.80
17659;DHT22;8948;51.534;8.262;2023-03-12T18:34:27;9.70;66.60
17659;DHT22;8948;51.534;8.262;2023-03-12T18:39:28;9.70;66.80
17659;DHT22;8948;51.534;8.262;2023-03-12T18:44:28;9.70;66.20
17659;DHT22;8948;51.534;8.262;2023-03-12T18:49:29;9.80;66.40
17659;DHT22;8948;51.534;8.262;2023-03-12T18:54:29;9.80;66.20
17659;DHT22;8948;51.534;8.262;2023-03-12T18:59:30;9.80;66.00
17659;DHT22;8948;51.534;8.262;2023-03-12T19:04:30;9.80;66.00
17659;DHT22;8948;51.534;8.262;2023-03-12T19:09:31;9.80;66.30
17659;DHT22;8948;51.534;8.262;2023-03-12T19:14:32;9.80;66.50
17659;DHT22;8948;51.534;8.262;2023-03-12T19:19:32;9.80;67.00
17659;DHT22;8948;51.534;8.262;2023-03-12T19:24:33;9.80;66.90
17659;DHT22;8948;51.534;8.262;2023-03-12T19:29:33;9.80;66.90
17659;DHT22;8948;51.534;8.262;2023-03-12T19:34:34;9.80;67.10
17659;DHT22;8948;51.534;8.262;2023-03-12T19:39:34;9.80;67.40
17659;DHT22;8948;51.534;8.262;2023-03-12T19:44:35;9.80;67.40
17659;DHT22;8948;51.534;8.262;2023-03-12T19:49:38;9.70;67.60
17659;DHT22;8948;51.534;8.262;2023-03-12T19:54:38;9.70;67.80
17659;DHT22;8948;51.534;8.262;2023-03-12T19:59:39;9.70;67.80
17659;DHT22;8948;51.534;8.262;2023-03-12T20:04:39;9.60;68.40
17659;DHT22;8948;51.534;8.262;2023-03-12T20:09:40;9.70;68.30
17659;DHT22;8948;51.534;8.262;2023-03-12T20:14:40;9.70;68.50
17659;DHT22;8948;51.534;8.262;2023-03-12T20:19:41;9.70;68.60
17659;DHT22;8948;51.534;8.262;2023-03-12T20:24:42;9.80;68.40
17659;DHT22;8948;51.534;8.262;2023-03-12T20:29:42;9.80;68.60
17659;DHT22;8948;51.534;8.262;2023-03-12T20:34:45;9.80;68.60
17659;DHT22;8948;51.534;8.262;2023-03-12T20:39:46;9.80;68.60
17659;DHT22;8948;51.534;8.262;2023-03-12T20:44:46;9.80;68.40
17659;DHT22;8948;51.534;8.262;2023-03-12T20:49:47;9.80;68.30
17659;DHT22;8948;51.534;8.262;2023-03-12T20:54:47;9.80;68.30
17659;DHT22;8948;51.534;8.262;2023-03-12T20:59:48;9.80;68.40
17659;DHT22;8948;51.534;8.262;2023-03-12T21:04:48;9.80;68.60
17659;DHT22;8948;51.534;8.262;2023-03-12T21:09:51;9.80;68.70
17659;DHT22;8948;51.534;8.262;2023-03-12T21:14:52;9.80;68.60
17659;DHT22;8948;51.534;8.262;2023-03-12T21:19:52;9.80;68.50
17659;DHT22;8948;51.534;8.262;2023-03-12T21:24:53;9.80;68.60
17659;DHT22;8948;51.534;8.262;2023-03-12T21:29:54;9.80;68.70
17659;DHT22;8948;51.534;8.262;2023-03-12T21:34:55;9.80;68.60
17659;DHT22;8948;51.534;8.262;2023-03-12T21:39:55;9.80;68.30
17659;DHT22;8948;51.534;8.262;2023-03-12T21:45:00;9.90;68.60
17659;DHT22;8948;51.534;8.262;2023-03-12T21:50:01;9.80;68.30
17659;DHT22;8948;51.534;8.262;2023-03-12T21:55:01;9.90;68.20
17659;DHT22;8948;51.534;8.262;2023-03-12T22:00:02;9.90;67.90
17659;DHT22;8948;51.534;8.262;2023-03-12T22:05:04;9.90;67.90
17659;DHT22;8948;51.534;8.262;2023-03-12T22:10:06;9.90;67.70
17659;DHT22;8948;51.534;8.262;2023-03-12T22:15:10;9.90;67.90
17659;DHT22;8948;51.534;8.262;2023-03-12T22:20:11;10.00;67.80
17659;DHT22;8948;51.534;8.262;2023-03-12T22:25:12;10.00;67.70
17659;DHT22;8948;51.534;8.262;2023-03-12T22:30:12;9.90;67.80
17659;DHT22;8948;51.534;8.262;2023-03-12T22:35:14;9.90;67.70
17659;DHT22;8948;51.534;8.262;2023-03-12T22:40:14;9.90;67.80
17659;DHT22;8948;51.534;8.262;2023-03-12T22:45:15;9.90;67.80
17659;DHT22;8948;51.534;8.262;2023-03-12T22:50:15;9.80;67.50
17659;DHT22;8948;51.534;8.262;2023-03-12T22:55:16;9.90;67.50
17659;DHT22;8948;51.534;8.262;2023-03-12T23:00:19;9.80;67.80
17659;DHT22;8948;51.534;8.262;2023-03-12T23:05:22;9.80;67.80
17659;DHT22;8948;51.534;8.262;2023-03-12T23:10:22;9.70;67.70
17659;DHT22;8948;51.534;8.262;2023-03-12T23:15:23;9.70;67.70
17659;DHT22;8948;51.534;8.262;2023-03-12T23:20:23;9.70;67.90
17659;DHT22;8948;51.534;8.262;2023-03-12T23:25:24;9.70;67.80
17659;DHT22;8948;51.534;8.262;2023-03-12T23:30:24;9.70;67.90
17659;DHT22;8948;51.534;8.262;2023-03-12T23:35:25;9.70;67.90
17659;DHT22;8948;51.534;8.262;2023-03-12T23:40:26;9.80;67.40
17659;DHT22;8948;51.534;8.262;2023-03-12T23:45:26;9.90;67.50
17659;DHT22;8948;51.534;8.262;2023-03-12T23:50:27;9.90;67.50
17659;DHT22;8948;51.534;8.262;2023-03-12T23:55:27;9.80;67.70
